sensor_id;sensor_type;location;lat;lon;timestamp;temperature;humidity
41720;DHT22;27405;53.316;-6.294;2023-02-01T00:01:35;7.20;99.90
41720;DHT22;27405;53.316;-6.294;2023-02-01T00:04:01;7.20;99.90
41720;DHT22;27405;53.316;-6.294;2023-02-01T00:06:26;7.20;99.90
41720;DHT22;27405;53.316;-6.294;2023-02-01T00:08:53;7.20;99.90
41720;DHT22;27405;53.316;-6.294;2023-02-01T00:11:19;7.20;99.90
41720;DHT22;27405;53.316;-6.294;2023-02-01T00:13:45;7.20;99.90
41720;DHT22;27405;53.316;-6.294;2023-02-01T00:16:14;7.20;99.90
41720;DHT22;27405;53.316;-6.294;2023-02-01T00:18:43;7.20;99.90
41720;DHT22;27405;53.316;-6.294;2023-02-01T00:21:14;7.20;99.90
41720;DHT22;27405;53.316;-6.294;2023-02-01T00:23:40;7.20;99.90
41720;DHT22;27405;53.316;-6.294;2023-02-01T00:26:09;7.10;99.90
41720;DHT22;27405;53.316;-6.294;2023-02-01T00:28:36;7.10;99.90
41720;DHT22;27405;53.316;-6.294;2023-02-01T00:31:03;7.10;99.90
41720;DHT22;27405;53.316;-6.294;2023-02-01T00:33:30;7.10;99.90
41720;DHT22;27405;53.316;-6.294;2023-02-01T00:36:07;7.10;99.90
41720;DHT22;27405;53.316;-6.294;2023-02-01T00:38:35;7.10;99.90
41720;DHT22;27405;53.316;-6.294;2023-02-01T00:41:06;7.10;99.90
41720;DHT22;27405;53.316;-6.294;2023-02-01T00:43:33;7.10;99.90
41720;DHT22;27405;53.316;-6.294;2023-02-01T00:45:59;7.10;99.90
41720;DHT22;27405;53.316;-6.294;2023-02-01T00:48:25;7.10;99.90
41720;DHT22;27405;53.316;-6.294;2023-02-01T00:50:51;7.20;99.90
41720;DHT22;27405;53.316;-6.294;2023-02-01T00:53:17;7.20;99.90
41720;DHT22;27405;53.316;-6.294;2023-02-01T00:55:47;7.20;99.90
41720;DHT22;27405;53.316;-6.294;2023-02-01T00:58:12;7.30;99.90
41720;DHT22;27405;53.316;-6.294;2023-02-01T01:00:38;7.30;99.90
41720;DHT22;27405;53.316;-6.294;2023-02-01T01:03:04;7.30;99.90
41720;DHT22;27405;53.316;-6.294;2023-02-01T01:05:48;7.30;99.90
41720;DHT22;27405;53.316;-6.294;2023-02-01T01:08:15;7.30;99.90
41720;DHT22;27405;53.316;-6.294;2023-02-01T01:10:41;7.40;99.90
41720;DHT22;27405;53.316;-6.294;2023-02-01T01:13:07;7.40;99.90
41720;DHT22;27405;53.316;-6.294;2023-02-01T01:15:38;7.40;99.90
41720;DHT22;27405;53.316;-6.294;2023-02-01T01:18:04;7.40;99.90
41720;DHT22;27405;53.316;-6.294;2023-02-01T01:20:29;7.40;99.90
41720;DHT22;27405;53.316;-6.294;2023-02-01T01:22:55;7.40;99.90
41720;DHT22;27405;53.316;-6.294;2023-02-01T01:25:21;7.40;99.90
41720;DHT22;27405;53.316;-6.294;2023-02-01T01:27:47;7.40;99.90
41720;DHT22;27405;53.316;-6.294;2023-02-01T01:30:12;7.40;99.90
41720;DHT22;27405;53.316;-6.294;2023-02-01T01:32:38;7.40;99.90
41720;DHT22;27405;53.316;-6.294;2023-02-01T01:35:05;7.40;99.90
41720;DHT22;27405;53.316;-6.294;2023-02-01T01:37:31;7.40;99.90
41720;DHT22;27405;53.316;-6.294;2023-02-01T01:39:57;7.30;99.90
41720;DHT22;27405;53.316;-6.294;2023-02-01T01:42:23;7.30;99.90
41720;DHT22;27405;53.316;-6.294;2023-02-01T01:45:06;7.30;99.90
41720;DHT22;27405;53.316;-6.294;2023-02-01T01:47:37;7.40;99.90
41720;DHT22;27405;53.316;-6.294;2023-02-01T01:50:06;7.40;99.90
41720;DHT22;27405;53.316;-6.294;2023-02-01T01:52:34;7.50;99.90
41720;DHT22;27405;53.316;-6.294;2023-02-01T01:55:00;7.50;99.90
41720;DHT22;27405;53.316;-6.294;2023-02-01T01:57:33;7.50;99.90
41720;DHT22;27405;53.316;-6.294;2023-02-01T02:00:07;7.50;99.90
41720;DHT22;27405;53.316;-6.294;2023-02-01T02:02:35;7.40;99.90
41720;DHT22;27405;53.316;-6.294;2023-02-01T02:05:01;7.40;99.90
41720;DHT22;27405;53.316;-6.294;2023-02-01T02:07:30;7.40;99.90
41720;DHT22;27405;53.316;-6.294;2023-02-01T02:09:57;7.30;99.90
41720;DHT22;27405;53.316;-6.294;2023-02-01T02:12:23;7.30;99.90
41720;DHT22;27405;53.316;-6.294;2023-02-01T02:14:49;7.30;99.90
41720;DHT22;27405;53.316;-6.294;2023-02-01T02:41:39;7.20;99.90
41720;DHT22;27405;53.316;-6.294;2023-02-01T02:44:49;7.30;99.90
41720;DHT22;27405;53.316;-6.294;2023-02-01T02:48:12;7.30;99.90
41720;DHT22;27405;53.316;-6.294;2023-02-01T02:51:04;7.30;99.90
41720;DHT22;27405;53.316;-6.294;2023-02-01T02:54:05;7.30;99.90
41720;DHT22;27405;53.316;-6.294;2023-02-01T02:56:52;7.30;99.90
41720;DHT22;27405;53.316;-6.294;2023-02-01T02:59:38;7.30;99.90
41720;DHT22;27405;53.316;-6.294;2023-02-01T03:02:26;7.30;99.90
41720;DHT22;27405;53.316;-6.294;2023-02-01T03:05:10;7.30;99.90
41720;DHT22;27405;53.316;-6.294;2023-02-01T03:10:38;7.20;99.90
41720;DHT22;27405;53.316;-6.294;2023-02-01T03:13:13;7.20;99.90
41720;DHT22;27405;53.316;-6.294;2023-02-01T03:15:45;7.20;99.90
41720;DHT22;27405;53.316;-6.294;2023-02-01T03:18:25;7.20;99.90
41720;DHT22;27405;53.316;-6.294;2023-02-01T03:20:53;7.20;99.90
41720;DHT22;27405;53.316;-6.294;2023-02-01T03:23:22;7.20;99.90
41720;DHT22;27405;53.316;-6.294;2023-02-01T03:25:50;7.20;99.90
41720;DHT22;27405;53.316;-6.294;2023-02-01T03:28:19;7.30;99.90
41720;DHT22;27405;53.316;-6.294;2023-02-01T03:30:49;7.20;99.90
41720;DHT22;27405;53.316;-6.294;2023-02-01T03:33:21;7.20;99.90
41720;DHT22;27405;53.316;-6.294;2023-02-01T03:41:40;7.20;99.90
41720;DHT22;27405;53.316;-6.294;2023-02-01T03:46:40;7.20;99.90
41720;DHT22;27405;53.316;-6.294;2023-02-01T03:49:09;7.20;99.90
41720;DHT22;27405;53.316;-6.294;2023-02-01T03:51:38;7.20;99.90
41720;DHT22;27405;53.316;-6.294;2023-02-01T03:54:06;7.20;99.90
41720;DHT22;27405;53.316;-6.294;2023-02-01T03:56:36;7.20;99.90
41720;DHT22;27405;53.316;-6.294;2023-02-01T03:59:03;7.20;99.90
41720;DHT22;27405;53.316;-6.294;2023-02-01T04:01:30;7.20;99.90
41720;DHT22;27405;53.316;-6.294;2023-02-01T04:03:59;7.20;99.90
41720;DHT22;27405;53.316;-6.294;2023-02-01T04:06:25;7.20;99.90
41720;DHT22;27405;53.316;-6.294;2023-02-01T04:08:50;7.20;99.90
41720;DHT22;27405;53.316;-6.294;2023-02-01T04:11:17;7.20;99.90
41720;DHT22;27405;53.316;-6.294;2023-02-01T04:13:43;7.30;99.90
41720;DHT22;27405;53.316;-6.294;2023-02-01T04:16:09;7.40;99.90
41720;DHT22;27405;53.316;-6.294;2023-02-01T04:18:34;7.40;99.90
41720;DHT22;27405;53.316;-6.294;2023-02-01T04:21:01;7.50;99.90
41720;DHT22;27405;53.316;-6.294;2023-02-01T04:23:28;7.50;99.90
41720;DHT22;27405;53.316;-6.294;2023-02-01T04:25:53;7.60;99.90
41720;DHT22;27405;53.316;-6.294;2023-02-01T04:28:20;7.70;99.90
41720;DHT22;27405;53.316;-6.294;2023-02-01T04:30:46;7.70;99.90
41720;DHT22;27405;53.316;-6.294;2023-02-01T04:33:11;7.70;99.90
41720;DHT22;27405;53.316;-6.294;2023-02-01T04:35:39;7.70;99.90
41720;DHT22;27405;53.316;-6.294;2023-02-01T04:38:05;7.70;99.90
41720;DHT22;27405;53.316;-6.294;2023-02-01T04:40:32;7.70;99.90
41720;DHT22;27405;53.316;-6.294;2023-02-01T04:43:00;7.70;99.90
41720;DHT22;27405;53.316;-6.294;2023-02-01T04:45:25;7.70;99.90
41720;DHT22;27405;53.316;-6.294;2023-02-01T04:47:51;7.70;99.90
41720;DHT22;27405;53.316;-6.294;2023-02-01T04:50:17;7.70;99.90
41720;DHT22;27405;53.316;-6.294;2023-02-01T04:52:42;7.70;99.90
41720;DHT22;27405;53.316;-6.294;2023-02-01T04:55:11;7.70;99.90
41720;DHT22;27405;53.316;-6.294;2023-02-01T04:57:36;7.70;99.90
41720;DHT22;27405;53.316;-6.294;2023-02-01T05:00:05;7.60;99.90
41720;DHT22;27405;53.316;-6.294;2023-02-01T05:02:31;7.60;99.90
41720;DHT22;27405;53.316;-6.294;2023-02-01T05:04:57;7.60;99.90
41720;DHT22;27405;53.316;-6.294;2023-02-01T05:07:23;7.60;99.90
41720;DHT22;27405;53.316;-6.294;2023-02-01T05:09:49;7.60;99.90
41720;DHT22;27405;53.316;-6.294;2023-02-01T05:12:14;7.60;99.90
41720;DHT22;27405;53.316;-6.294;2023-02-01T05:14:59;7.60;99.90
41720;DHT22;27405;53.316;-6.294;2023-02-01T05:17:24;7.60;99.90
41720;DHT22;27405;53.316;-6.294;2023-02-01T05:19:50;7.50;99.90
41720;DHT22;27405;53.316;-6.294;2023-02-01T05:22:16;7.50;99.90
41720;DHT22;27405;53.316;-6.294;2023-02-01T05:24:41;7.50;99.90
41720;DHT22;27405;53.316;-6.294;2023-02-01T05:27:07;7.50;99.90
41720;DHT22;27405;53.316;-6.294;2023-02-01T05:29:33;7.50;99.90
41720;DHT22;27405;53.316;-6.294;2023-02-01T05:31:58;7.50;99.90
41720;DHT22;27405;53.316;-6.294;2023-02-01T05:34:24;7.50;99.90
41720;DHT22;27405;53.316;-6.294;2023-02-01T05:36:50;7.50;99.90
41720;DHT22;27405;53.316;-6.294;2023-02-01T05:39:15;7.60;99.90
41720;DHT22;27405;53.316;-6.294;2023-02-01T05:41:41;7.70;99.90
41720;DHT22;27405;53.316;-6.294;2023-02-01T05:44:07;7.70;99.90
41720;DHT22;27405;53.316;-6.294;2023-02-01T05:46:33;7.80;99.90
41720;DHT22;27405;53.316;-6.294;2023-02-01T05:48:59;7.80;99.90
41720;DHT22;27405;53.316;-6.294;2023-02-01T05:51:25;7.80;99.90
41720;DHT22;27405;53.316;-6.294;2023-02-01T05:53:51;7.80;99.90
41720;DHT22;27405;53.316;-6.294;2023-02-01T05:56:17;7.70;99.90
41720;DHT22;27405;53.316;-6.294;2023-02-01T05:58:43;7.70;99.90
41720;DHT22;27405;53.316;-6.294;2023-02-01T06:01:09;7.70;99.90
41720;DHT22;27405;53.316;-6.294;2023-02-01T06:03:34;7.70;99.90
41720;DHT22;27405;53.316;-6.294;2023-02-01T06:06:00;7.70;99.90
41720;DHT22;27405;53.316;-6.294;2023-02-01T06:08:27;7.60;99.90
41720;DHT22;27405;53.316;-6.294;2023-02-01T06:11:00;7.60;99.90
41720;DHT22;27405;53.316;-6.294;2023-02-01T06:13:27;7.60;99.90
41720;DHT22;27405;53.316;-6.294;2023-02-01T06:15:52;7.60;99.90
41720;DHT22;27405;53.316;-6.294;2023-02-01T06:18:18;7.60;99.90
41720;DHT22;27405;53.316;-6.294;2023-02-01T06:20:44;7.60;99.90
41720;DHT22;27405;53.316;-6.294;2023-02-01T06:23:10;7.60;99.90
41720;DHT22;27405;53.316;-6.294;2023-02-01T06:25:35;7.60;99.90
41720;DHT22;27405;53.316;-6.294;2023-02-01T06:28:03;7.60;99.90
41720;DHT22;27405;53.316;-6.294;2023-02-01T06:30:31;7.60;99.90
41720;DHT22;27405;53.316;-6.294;2023-02-01T06:32:57;7.60;99.90
41720;DHT22;27405;53.316;-6.294;2023-02-01T06:35:22;7.60;99.90
41720;DHT22;27405;53.316;-6.294;2023-02-01T06:37:48;7.60;99.90
41720;DHT22;27405;53.316;-6.294;2023-02-01T06:40:14;7.50;99.90
41720;DHT22;27405;53.316;-6.294;2023-02-01T06:42:39;7.60;99.90
41720;DHT22;27405;53.316;-6.294;2023-02-01T06:45:06;7.60;99.90
41720;DHT22;27405;53.316;-6.294;2023-02-01T06:47:32;7.60;99.90
41720;DHT22;27405;53.316;-6.294;2023-02-01T06:49:58;7.60;99.90
41720;DHT22;27405;53.316;-6.294;2023-02-01T06:52:23;7.60;99.90
41720;DHT22;27405;53.316;-6.294;2023-02-01T06:54:49;7.60;99.90
41720;DHT22;27405;53.316;-6.294;2023-02-01T06:57:15;7.60;99.90
41720;DHT22;27405;53.316;-6.294;2023-02-01T06:59:40;7.70;99.90
41720;DHT22;27405;53.316;-6.294;2023-02-01T07:02:10;7.70;99.90
41720;DHT22;27405;53.316;-6.294;2023-02-01T07:04:36;7.70;99.90
41720;DHT22;27405;53.316;-6.294;2023-02-01T07:07:01;7.70;99.90
41720;DHT22;27405;53.316;-6.294;2023-02-01T07:09:27;7.70;99.90
41720;DHT22;27405;53.316;-6.294;2023-02-01T07:11:53;7.70;99.90
41720;DHT22;27405;53.316;-6.294;2023-02-01T07:14:18;7.70;99.90
41720;DHT22;27405;53.316;-6.294;2023-02-01T07:16:44;7.70;99.90
41720;DHT22;27405;53.316;-6.294;2023-02-01T07:19:10;7.70;99.90
41720;DHT22;27405;53.316;-6.294;2023-02-01T07:21:35;7.80;99.90
41720;DHT22;27405;53.316;-6.294;2023-02-01T07:24:01;7.80;99.90
41720;DHT22;27405;53.316;-6.294;2023-02-01T07:26:27;7.70;99.90
41720;DHT22;27405;53.316;-6.294;2023-02-01T07:28:52;7.80;99.90
41720;DHT22;27405;53.316;-6.294;2023-02-01T07:31:19;7.80;99.90
41720;DHT22;27405;53.316;-6.294;2023-02-01T07:33:47;7.80;99.90
41720;DHT22;27405;53.316;-6.294;2023-02-01T07:36:16;7.80;99.90
41720;DHT22;27405;53.316;-6.294;2023-02-01T07:38:43;7.80;99.90
41720;DHT22;27405;53.316;-6.294;2023-02-01T07:41:09;7.80;99.90
41720;DHT22;27405;53.316;-6.294;2023-02-01T07:43:35;7.80;99.90
41720;DHT22;27405;53.316;-6.294;2023-02-01T07:46:02;7.80;99.90
41720;DHT22;27405;53.316;-6.294;2023-02-01T07:48:29;7.80;99.90
41720;DHT22;27405;53.316;-6.294;2023-02-01T07:51:21;7.80;99.90
41720;DHT22;27405;53.316;-6.294;2023-02-01T07:53:47;7.80;99.90
41720;DHT22;27405;53.316;-6.294;2023-02-01T07:56:18;7.80;99.90
41720;DHT22;27405;53.316;-6.294;2023-02-01T07:58:51;7.90;99.90
41720;DHT22;27405;53.316;-6.294;2023-02-01T08:01:22;7.80;99.90
41720;DHT22;27405;53.316;-6.294;2023-02-01T08:03:54;7.80;99.90
41720;DHT22;27405;53.316;-6.294;2023-02-01T08:06:20;7.90;99.90
41720;DHT22;27405;53.316;-6.294;2023-02-01T08:08:47;7.90;99.90
41720;DHT22;27405;53.316;-6.294;2023-02-01T08:11:14;7.90;99.90
41720;DHT22;27405;53.316;-6.294;2023-02-01T08:13:40;7.90;99.90
41720;DHT22;27405;53.316;-6.294;2023-02-01T08:16:08;7.90;99.90
41720;DHT22;27405;53.316;-6.294;2023-02-01T08:18:35;7.90;99.90
41720;DHT22;27405;53.316;-6.294;2023-02-01T08:21:11;7.90;99.90
41720;DHT22;27405;53.316;-6.294;2023-02-01T08:23:38;8.00;99.90
41720;DHT22;27405;53.316;-6.294;2023-02-01T08:26:13;8.00;99.90
41720;DHT22;27405;53.316;-6.294;2023-02-01T08:28:42;8.00;99.90
41720;DHT22;27405;53.316;-6.294;2023-02-01T08:31:10;7.90;99.90
41720;DHT22;27405;53.316;-6.294;2023-02-01T08:33:36;8.00;99.90
41720;DHT22;27405;53.316;-6.294;2023-02-01T08:36:04;8.00;99.90
41720;DHT22;27405;53.316;-6.294;2023-02-01T08:38:30;8.10;99.90
41720;DHT22;27405;53.316;-6.294;2023-02-01T08:40:56;8.10;99.90
41720;DHT22;27405;53.316;-6.294;2023-02-01T08:43:22;8.20;99.90
41720;DHT22;27405;53.316;-6.294;2023-02-01T08:45:49;8.30;99.90
41720;DHT22;27405;53.316;-6.294;2023-02-01T08:48:15;8.40;99.90
41720;DHT22;27405;53.316;-6.294;2023-02-01T08:50:40;8.40;99.90
41720;DHT22;27405;53.316;-6.294;2023-02-01T08:53:06;8.40;99.90
41720;DHT22;27405;53.316;-6.294;2023-02-01T08:55:32;8.50;99.90
41720;DHT22;27405;53.316;-6.294;2023-02-01T08:57:57;8.50;99.90
41720;DHT22;27405;53.316;-6.294;2023-02-01T09:00:23;8.50;99.90
41720;DHT22;27405;53.316;-6.294;2023-02-01T09:02:49;8.50;99.90
41720;DHT22;27405;53.316;-6.294;2023-02-01T09:05:14;8.50;99.90
41720;DHT22;27405;53.316;-6.294;2023-02-01T09:07:42;8.50;99.90
41720;DHT22;27405;53.316;-6.294;2023-02-01T09:10:08;8.50;99.90
41720;DHT22;27405;53.316;-6.294;2023-02-01T09:12:35;8.50;99.90
41720;DHT22;27405;53.316;-6.294;2023-02-01T09:15:01;8.60;99.90
41720;DHT22;27405;53.316;-6.294;2023-02-01T09:17:27;8.60;99.90
41720;DHT22;27405;53.316;-6.294;2023-02-01T09:19:53;8.70;99.90
41720;DHT22;27405;53.316;-6.294;2023-02-01T09:22:19;8.80;99.90
41720;DHT22;27405;53.316;-6.294;2023-02-01T09:24:45;8.80;99.90
41720;DHT22;27405;53.316;-6.294;2023-02-01T09:27:10;8.90;99.90
41720;DHT22;27405;53.316;-6.294;2023-02-01T09:29:36;8.90;99.90
41720;DHT22;27405;53.316;-6.294;2023-02-01T09:32:02;8.90;99.90
41720;DHT22;27405;53.316;-6.294;2023-02-01T09:34:27;8.90;99.90
41720;DHT22;27405;53.316;-6.294;2023-02-01T09:36:53;9.00;99.90
41720;DHT22;27405;53.316;-6.294;2023-02-01T09:39:19;9.00;99.90
41720;DHT22;27405;53.316;-6.294;2023-02-01T09:41:53;9.10;99.90
41720;DHT22;27405;53.316;-6.294;2023-02-01T09:46:55;9.20;99.90
41720;DHT22;27405;53.316;-6.294;2023-02-01T09:49:33;9.20;99.90
41720;DHT22;27405;53.316;-6.294;2023-02-01T09:52:04;9.20;99.90
41720;DHT22;27405;53.316;-6.294;2023-02-01T09:54:58;9.30;99.90
41720;DHT22;27405;53.316;-6.294;2023-02-01T09:58:07;9.20;99.90
41720;DHT22;27405;53.316;-6.294;2023-02-01T10:00:36;9.30;99.90
41720;DHT22;27405;53.316;-6.294;2023-02-01T10:03:03;9.30;99.90
41720;DHT22;27405;53.316;-6.294;2023-02-01T10:06:11;9.30;99.90
41720;DHT22;27405;53.316;-6.294;2023-02-01T10:09:10;9.40;99.90
41720;DHT22;27405;53.316;-6.294;2023-02-01T10:12:01;9.40;99.90
41720;DHT22;27405;53.316;-6.294;2023-02-01T10:20:27;9.60;99.90
41720;DHT22;27405;53.316;-6.294;2023-02-01T10:23:11;9.60;99.90
41720;DHT22;27405;53.316;-6.294;2023-02-01T10:25:56;9.50;99.90
41720;DHT22;27405;53.316;-6.294;2023-02-01T10:28:25;9.60;99.90
41720;DHT22;27405;53.316;-6.294;2023-02-01T10:30:56;9.70;99.90
41720;DHT22;27405;53.316;-6.294;2023-02-01T10:33:25;9.70;99.90
41720;DHT22;27405;53.316;-6.294;2023-02-01T10:35:55;9.70;99.90
41720;DHT22;27405;53.316;-6.294;2023-02-01T10:38:32;9.80;99.90
41720;DHT22;27405;53.316;-6.294;2023-02-01T10:41:04;9.80;99.90
41720;DHT22;27405;53.316;-6.294;2023-02-01T10:43:34;9.80;99.90
41720;DHT22;27405;53.316;-6.294;2023-02-01T10:46:00;9.80;99.90
41720;DHT22;27405;53.316;-6.294;2023-02-01T10:48:26;9.70;99.90
41720;DHT22;27405;53.316;-6.294;2023-02-01T10:51:00;9.70;99.90
41720;DHT22;27405;53.316;-6.294;2023-02-01T10:53:44;9.80;99.90
41720;DHT22;27405;53.316;-6.294;2023-02-01T10:56:12;9.80;99.90
41720;DHT22;27405;53.316;-6.294;2023-02-01T10:58:48;9.80;99.90
41720;DHT22;27405;53.316;-6.294;2023-02-01T11:01:41;9.80;99.90
41720;DHT22;27405;53.316;-6.294;2023-02-01T11:04:14;9.90;99.90
41720;DHT22;27405;53.316;-6.294;2023-02-01T11:06:45;9.90;99.90
41720;DHT22;27405;53.316;-6.294;2023-02-01T11:14:26;10.00;99.90
41720;DHT22;27405;53.316;-6.294;2023-02-01T11:19:25;10.20;99.90
41720;DHT22;27405;53.316;-6.294;2023-02-01T11:21:53;10.30;99.90
41720;DHT22;27405;53.316;-6.294;2023-02-01T11:24:34;10.40;99.90
41720;DHT22;27405;53.316;-6.294;2023-02-01T11:27:05;10.50;99.90
41720;DHT22;27405;53.316;-6.294;2023-02-01T11:29:40;10.50;99.90
41720;DHT22;27405;53.316;-6.294;2023-02-01T11:32:09;10.50;99.90
41720;DHT22;27405;53.316;-6.294;2023-02-01T11:34:45;10.50;99.90
41720;DHT22;27405;53.316;-6.294;2023-02-01T11:37:25;10.50;99.90
41720;DHT22;27405;53.316;-6.294;2023-02-01T11:40:00;10.40;99.90
41720;DHT22;27405;53.316;-6.294;2023-02-01T11:42:27;10.40;99.90
41720;DHT22;27405;53.316;-6.294;2023-02-01T11:45:52;10.40;99.90
41720;DHT22;27405;53.316;-6.294;2023-02-01T11:48:13;10.40;99.90
41720;DHT22;27405;53.316;-6.294;2023-02-01T11:58:56;10.60;99.90
41720;DHT22;27405;53.316;-6.294;2023-02-01T12:07:54;10.80;99.90
41720;DHT22;27405;53.316;-6.294;2023-02-01T12:18:47;11.00;99.90
41720;DHT22;27405;53.316;-6.294;2023-02-01T12:34:51;11.00;99.90
41720;DHT22;27405;53.316;-6.294;2023-02-01T12:37:40;11.00;99.90
41720;DHT22;27405;53.316;-6.294;2023-02-01T12:43:21;11.20;99.90
41720;DHT22;27405;53.316;-6.294;2023-02-01T12:45:59;11.20;99.90
41720;DHT22;27405;53.316;-6.294;2023-02-01T12:48:53;11.20;99.90
41720;DHT22;27405;53.316;-6.294;2023-02-01T12:51:25;11.20;99.90
41720;DHT22;27405;53.316;-6.294;2023-02-01T12:54:02;11.20;99.90
41720;DHT22;27405;53.316;-6.294;2023-02-01T12:56:38;11.10;99.90
41720;DHT22;27405;53.316;-6.294;2023-02-01T13:02:39;11.10;99.90
41720;DHT22;27405;53.316;-6.294;2023-02-01T13:05:22;11.10;99.90
41720;DHT22;27405;53.316;-6.294;2023-02-01T13:08:02;11.10;99.90
41720;DHT22;27405;53.316;-6.294;2023-02-01T13:10:37;11.20;99.90
41720;DHT22;27405;53.316;-6.294;2023-02-01T13:16:34;11.30;99.90
41720;DHT22;27405;53.316;-6.294;2023-02-01T13:18:39;11.30;99.90
41720;DHT22;27405;53.316;-6.294;2023-02-01T13:21:24;11.30;99.90
41720;DHT22;27405;53.316;-6.294;2023-02-01T13:23:52;11.40;99.90
41720;DHT22;27405;53.316;-6.294;2023-02-01T13:26:18;11.40;99.90
41720;DHT22;27405;53.316;-6.294;2023-02-01T13:33:56;11.50;99.90
41720;DHT22;27405;53.316;-6.294;2023-02-01T13:44:30;11.40;99.90
41720;DHT22;27405;53.316;-6.294;2023-02-01T13:47:01;11.40;99.90
41720;DHT22;27405;53.316;-6.294;2023-02-01T13:49:30;11.40;99.90
41720;DHT22;27405;53.316;-6.294;2023-02-01T13:51:58;11.40;99.90
41720;DHT22;27405;53.316;-6.294;2023-02-01T13:54:37;11.40;99.90
41720;DHT22;27405;53.316;-6.294;2023-02-01T13:57:06;11.40;99.90
41720;DHT22;27405;53.316;-6.294;2023-02-01T14:10:53;11.30;99.90
41720;DHT22;27405;53.316;-6.294;2023-02-01T14:13:37;11.30;99.90
41720;DHT22;27405;53.316;-6.294;2023-02-01T14:23:44;11.20;99.90
41720;DHT22;27405;53.316;-6.294;2023-02-01T14:26:13;11.30;99.90
41720;DHT22;27405;53.316;-6.294;2023-02-01T14:31:44;11.30;99.90
41720;DHT22;27405;53.316;-6.294;2023-02-01T14:34:19;11.30;99.90
41720;DHT22;27405;53.316;-6.294;2023-02-01T14:37:10;11.30;99.90
41720;DHT22;27405;53.316;-6.294;2023-02-01T14:40:00;11.30;99.90
41720;DHT22;27405;53.316;-6.294;2023-02-01T14:42:45;11.30;99.90
41720;DHT22;27405;53.316;-6.294;2023-02-01T14:58:44;11.30;99.90
41720;DHT22;27405;53.316;-6.294;2023-02-01T15:09:02;11.30;99.90
41720;DHT22;27405;53.316;-6.294;2023-02-01T15:11:28;11.30;99.90
41720;DHT22;27405;53.316;-6.294;2023-02-01T15:13:54;11.20;99.90
41720;DHT22;27405;53.316;-6.294;2023-02-01T15:16:24;11.20;99.90
41720;DHT22;27405;53.316;-6.294;2023-02-01T15:18:50;11.20;99.90
41720;DHT22;27405;53.316;-6.294;2023-02-01T15:21:20;11.20;99.90
41720;DHT22;27405;53.316;-6.294;2023-02-01T15:23:46;11.20;99.90
41720;DHT22;27405;53.316;-6.294;2023-02-01T15:26:28;11.10;99.90
41720;DHT22;27405;53.316;-6.294;2023-02-01T15:28:53;11.10;99.90
41720;DHT22;27405;53.316;-6.294;2023-02-01T15:31:34;11.10;99.90
41720;DHT22;27405;53.316;-6.294;2023-02-01T15:34:00;11.10;99.90
41720;DHT22;27405;53.316;-6.294;2023-02-01T15:36:26;11.10;99.90
41720;DHT22;27405;53.316;-6.294;2023-02-01T15:41:57;11.00;99.90
41720;DHT22;27405;53.316;-6.294;2023-02-01T15:44:41;11.00;99.90
41720;DHT22;27405;53.316;-6.294;2023-02-01T15:47:15;11.00;99.90
41720;DHT22;27405;53.316;-6.294;2023-02-01T15:49:44;10.90;99.90
41720;DHT22;27405;53.316;-6.294;2023-02-01T15:52:39;10.90;99.90
41720;DHT22;27405;53.316;-6.294;2023-02-01T15:55:08;10.90;99.90
41720;DHT22;27405;53.316;-6.294;2023-02-01T15:57:39;10.90;99.90
41720;DHT22;27405;53.316;-6.294;2023-02-01T16:00:08;10.80;99.90
41720;DHT22;27405;53.316;-6.294;2023-02-01T16:02:53;10.80;99.90
41720;DHT22;27405;53.316;-6.294;2023-02-01T16:08:14;10.70;99.90
41720;DHT22;27405;53.316;-6.294;2023-02-01T16:10:43;10.70;99.90
41720;DHT22;27405;53.316;-6.294;2023-02-01T16:13:09;10.70;99.90
41720;DHT22;27405;53.316;-6.294;2023-02-01T16:15:36;10.70;99.90
41720;DHT22;27405;53.316;-6.294;2023-02-01T16:18:02;10.60;99.90
41720;DHT22;27405;53.316;-6.294;2023-02-01T16:20:28;10.60;99.90
41720;DHT22;27405;53.316;-6.294;2023-02-01T16:22:55;10.60;99.90
41720;DHT22;27405;53.316;-6.294;2023-02-01T16:25:20;10.60;99.90
41720;DHT22;27405;53.316;-6.294;2023-02-01T16:27:46;10.60;99.90
41720;DHT22;27405;53.316;-6.294;2023-02-01T16:30:12;10.50;99.90
41720;DHT22;27405;53.316;-6.294;2023-02-01T16:32:38;10.50;99.90
41720;DHT22;27405;53.316;-6.294;2023-02-01T16:35:19;10.50;99.90
41720;DHT22;27405;53.316;-6.294;2023-02-01T16:37:47;10.50;99.90
41720;DHT22;27405;53.316;-6.294;2023-02-01T16:40:17;10.50;99.90
41720;DHT22;27405;53.316;-6.294;2023-02-01T16:42:46;10.40;99.90
41720;DHT22;27405;53.316;-6.294;2023-02-01T16:45:13;10.40;99.90
41720;DHT22;27405;53.316;-6.294;2023-02-01T16:47:40;10.40;99.90
41720;DHT22;27405;53.316;-6.294;2023-02-01T16:50:16;10.40;99.90
41720;DHT22;27405;53.316;-6.294;2023-02-01T16:52:42;10.30;99.90
41720;DHT22;27405;53.316;-6.294;2023-02-01T16:55:13;10.40;99.90
41720;DHT22;27405;53.316;-6.294;2023-02-01T16:57:41;10.30;99.90
41720;DHT22;27405;53.316;-6.294;2023-02-01T17:00:08;10.30;99.90
41720;DHT22;27405;53.316;-6.294;2023-02-01T17:02:34;10.30;99.90
41720;DHT22;27405;53.316;-6.294;2023-02-01T17:05:00;10.30;99.90
41720;DHT22;27405;53.316;-6.294;2023-02-01T17:07:26;10.30;99.90
41720;DHT22;27405;53.316;-6.294;2023-02-01T17:09:52;10.30;99.90
41720;DHT22;27405;53.316;-6.294;2023-02-01T17:12:25;10.20;99.90
41720;DHT22;27405;53.316;-6.294;2023-02-01T17:14:51;10.20;99.90
41720;DHT22;27405;53.316;-6.294;2023-02-01T17:17:18;10.20;99.90
41720;DHT22;27405;53.316;-6.294;2023-02-01T17:19:47;10.20;99.90
41720;DHT22;27405;53.316;-6.294;2023-02-01T17:22:17;10.20;99.90
41720;DHT22;27405;53.316;-6.294;2023-02-01T17:24:43;10.20;99.90
41720;DHT22;27405;53.316;-6.294;2023-02-01T17:27:09;10.20;99.90
41720;DHT22;27405;53.316;-6.294;2023-02-01T17:29:35;10.20;99.90
41720;DHT22;27405;53.316;-6.294;2023-02-01T17:32:02;10.20;99.90
41720;DHT22;27405;53.316;-6.294;2023-02-01T17:34:28;10.20;99.90
41720;DHT22;27405;53.316;-6.294;2023-02-01T17:36:54;10.20;99.90
41720;DHT22;27405;53.316;-6.294;2023-02-01T17:39:19;10.20;99.90
41720;DHT22;27405;53.316;-6.294;2023-02-01T17:42:04;10.20;99.90
41720;DHT22;27405;53.316;-6.294;2023-02-01T17:44:31;10.20;99.90
41720;DHT22;27405;53.316;-6.294;2023-02-01T17:46:57;10.20;99.90
41720;DHT22;27405;53.316;-6.294;2023-02-01T17:49:24;10.10;99.90
41720;DHT22;27405;53.316;-6.294;2023-02-01T17:51:53;10.10;99.90
41720;DHT22;27405;53.316;-6.294;2023-02-01T17:54:19;10.20;99.90
41720;DHT22;27405;53.316;-6.294;2023-02-01T17:56:45;10.10;99.90
41720;DHT22;27405;53.316;-6.294;2023-02-01T17:59:14;10.20;99.90
41720;DHT22;27405;53.316;-6.294;2023-02-01T18:01:40;10.10;99.90
41720;DHT22;27405;53.316;-6.294;2023-02-01T18:04:25;10.10;99.90
41720;DHT22;27405;53.316;-6.294;2023-02-01T18:06:51;10.10;99.90
41720;DHT22;27405;53.316;-6.294;2023-02-01T18:09:17;10.10;99.90
41720;DHT22;27405;53.316;-6.294;2023-02-01T18:11:42;10.10;99.90
41720;DHT22;27405;53.316;-6.294;2023-02-01T18:14:11;10.10;99.90
41720;DHT22;27405;53.316;-6.294;2023-02-01T18:16:37;10.00;99.90
41720;DHT22;27405;53.316;-6.294;2023-02-01T18:19:03;10.00;99.90
41720;DHT22;27405;53.316;-6.294;2023-02-01T18:21:37;9.90;99.90
41720;DHT22;27405;53.316;-6.294;2023-02-01T18:24:05;9.90;99.90